Time;durP1;ratioP1;P1;durP2;ratioP2;P2;SDS_P1;SDS_P2;PMS_P1;PMS_P2;Temp;Humidity;BMP_temperature;BMP_pressure;BME280_temperature;BME280_humidity;BME280_pressure;Samples;Min_cycle;Max_cycle;Signal;HPM_P1;HPM_P2
2022/01/08 00:01:32;;;;;;;3.47;3.07;;;1.80;99.90;;;;;;5014488;28;20192;-69
2022/01/08 00:03:58;;;;;;;4.70;4.20;;;1.80;99.90;;;;;;5014397;28;20551;-69
2022/01/08 00:06:23;;;;;;;3.37;2.63;;;1.80;99.90;;;;;;5014192;28;20243;-69
2022/01/08 00:08:49;;;;;;;4.00;3.57;;;1.80;99.90;;;;;;5014264;28;20718;-70
2022/01/08 00:11:19;;;;;;;2.97;2.67;;;1.80;99.90;;;;;;5006382;28;20689;-69
2022/01/08 00:13:45;;;;;;;5.57;3.60;;;1.70;99.90;;;;;;4994381;28;20608;-70
2022/01/08 00:16:10;;;;;;;7.67;3.37;;;1.70;99.90;;;;;;5000870;28;20486;-69
2022/01/08 00:18:36;;;;;;;3.43;3.13;;;1.60;99.90;;;;;;4994289;28;20236;-69
2022/01/08 00:21:02;;;;;;;4.90;4.40;;;1.60;99.90;;;;;;5012969;28;20607;-70
2022/01/08 00:23:27;;;;;;;6.00;3.60;;;1.50;99.90;;;;;;5013689;28;20271;-69
2022/01/08 00:25:53;;;;;;;2.43;2.20;;;1.50;99.90;;;;;;5013580;28;20176;-69
2022/01/08 00:28:18;;;;;;;4.07;3.73;;;1.50;99.90;;;;;;5013706;28;20407;-68
2022/01/08 00:30:45;;;;;;;3.73;3.40;;;1.50;99.90;;;;;;5010411;28;20231;-68
2022/01/08 00:33:10;;;;;;;4.63;4.30;;;1.40;99.90;;;;;;5013346;28;20263;-68
2022/01/08 00:35:36;;;;;;;3.10;2.80;;;1.40;99.90;;;;;;5013049;28;20554;-69
2022/01/08 00:38:02;;;;;;;5.20;2.83;;;1.40;99.90;;;;;;5013526;28;20570;-69
2022/01/08 00:40:28;;;;;;;3.37;3.17;;;1.40;99.90;;;;;;5013296;28;20188;-69
2022/01/08 00:42:54;;;;;;;3.90;3.53;;;1.40;99.90;;;;;;5013200;28;21009;-69
2022/01/08 00:45:20;;;;;;;6.50;3.30;;;1.30;99.90;;;;;;5013101;28;20437;-69
2022/01/08 00:47:45;;;;;;;5.27;2.97;;;1.30;99.90;;;;;;5013179;28;20263;-69
2022/01/08 00:50:12;;;;;;;3.43;2.97;;;1.30;99.90;;;;;;5013172;28;20177;-69
2022/01/08 00:52:38;;;;;;;3.97;3.57;;;1.30;99.90;;;;;;5013136;28;20546;-69
2022/01/08 00:55:05;;;;;;;9.77;3.70;;;1.30;99.90;;;;;;5013277;28;20584;-69
2022/01/08 00:57:30;;;;;;;2.90;2.70;;;1.30;99.90;;;;;;5013314;28;20907;-69
2022/01/08 00:59:56;;;;;;;4.03;3.67;;;1.30;99.90;;;;;;5012933;28;20498;-69
2022/01/08 01:02:21;;;;;;;3.30;2.87;;;1.30;99.90;;;;;;5012425;28;20250;-69
2022/01/08 01:04:47;;;;;;;3.33;3.13;;;1.30;99.90;;;;;;5012789;28;20645;-69
2022/01/08 01:07:13;;;;;;;4.10;3.50;;;1.30;99.90;;;;;;5012908;28;20687;-69
2022/01/08 01:09:38;;;;;;;4.87;4.00;;;1.30;99.90;;;;;;5013110;28;20172;-69
2022/01/08 01:12:04;;;;;;;5.40;4.87;;;1.40;99.90;;;;;;5012604;28;20522;-69
2022/01/08 01:14:30;;;;;;;3.93;2.80;;;1.40;99.90;;;;;;5012738;28;20203;-69
2022/01/08 01:16:56;;;;;;;2.90;2.57;;;1.40;99.90;;;;;;5012648;28;20530;-69
2022/01/08 01:19:22;;;;;;;4.43;3.93;;;1.40;99.90;;;;;;5012896;28;20395;-69
2022/01/08 01:21:49;;;;;;;4.00;2.93;;;1.50;99.90;;;;;;5012343;28;20243;-69
2022/01/08 01:24:19;;;;;;;3.50;3.20;;;1.50;99.90;;;;;;5012676;28;20495;-69
2022/01/08 01:27:12;;;;;;;2.73;2.53;;;1.50;99.90;;;;;;5012593;28;20418;-68
2022/01/08 01:29:52;;;;;;;4.17;3.20;;;1.50;99.90;;;;;;5012581;28;20952;-68
2022/01/08 01:43:28;;;;;;;4.80;4.23;;;1.50;99.90;;;;;;5011975;28;20410;-69
2022/01/08 01:48:38;;;;;;;3.80;2.83;;;1.50;99.90;;;;;;5015618;28;20417;-69
2022/01/08 01:51:04;;;;;;;3.87;3.57;;;1.50;99.90;;;;;;5015297;28;20517;-69
2022/01/08 01:53:29;;;;;;;3.50;2.43;;;1.50;99.90;;;;;;5016315;28;20180;-69
2022/01/08 01:55:55;;;;;;;4.83;3.87;;;1.50;99.90;;;;;;5014255;28;20209;-69
2022/01/08 01:58:20;;;;;;;4.57;4.17;;;1.50;99.90;;;;;;5012605;28;20184;-69
2022/01/08 02:00:49;;;;;;;3.20;3.00;;;1.50;99.90;;;;;;5012230;28;20204;-69
2022/01/08 02:03:14;;;;;;;3.30;3.00;;;1.50;99.90;;;;;;5012301;28;20584;-69
2022/01/08 02:05:40;;;;;;;2.30;2.10;;;1.50;99.90;;;;;;5012198;28;20418;-69
2022/01/08 02:08:05;;;;;;;4.97;3.97;;;1.60;99.90;;;;;;5012689;28;20173;-69
2022/01/08 02:10:31;;;;;;;5.57;3.77;;;1.60;99.90;;;;;;5012276;28;20214;-69
2022/01/08 02:12:57;;;;;;;7.13;4.10;;;1.60;99.90;;;;;;5012253;28;20192;-69
2022/01/08 02:15:22;;;;;;;4.80;3.20;;;1.60;99.90;;;;;;5011423;28;20196;-69
2022/01/08 02:17:48;;;;;;;2.40;2.30;;;1.60;99.90;;;;;;5010527;28;20177;-69
2022/01/08 02:20:14;;;;;;;7.33;4.47;;;1.60;99.90;;;;;;5011882;28;20180;-69
2022/01/08 02:22:39;;;;;;;3.53;3.27;;;1.60;99.90;;;;;;5011491;28;20196;-68
2022/01/08 02:25:05;;;;;;;3.97;3.67;;;1.70;99.90;;;;;;5011403;28;20423;-68
2022/01/08 02:27:31;;;;;;;4.80;4.20;;;1.70;99.90;;;;;;5010465;28;20183;-69
2022/01/08 02:29:56;;;;;;;5.27;4.07;;;1.70;99.90;;;;;;5015145;28;20491;-69
2022/01/08 02:32:27;;;;;;;3.77;3.00;;;1.70;99.90;;;;;;5016046;28;20188;-69
2022/01/08 02:34:52;;;;;;;4.93;4.53;;;1.70;99.90;;;;;;5013638;28;20201;-68
2022/01/08 02:37:19;;;;;;;3.57;3.00;;;1.70;99.90;;;;;;5011712;28;20823;-69
2022/01/08 02:39:48;;;;;;;7.23;4.20;;;1.70;99.90;;;;;;5011610;28;20218;-70
2022/01/08 02:42:17;;;;;;;3.77;3.47;;;1.70;99.90;;;;;;5011577;28;20432;-69
2022/01/08 02:44:44;;;;;;;3.63;3.33;;;1.80;99.90;;;;;;5011540;28;20407;-69
2022/01/08 02:47:13;;;;;;;2.03;1.93;;;1.80;99.90;;;;;;5011253;28;20430;-69
2022/01/08 02:49:38;;;;;;;3.80;2.80;;;1.80;99.90;;;;;;5010054;28;20426;-69
2022/01/08 02:52:04;;;;;;;4.87;4.00;;;1.80;99.90;;;;;;5011305;28;20427;-69
2022/01/08 02:54:30;;;;;;;3.77;2.53;;;1.80;99.90;;;;;;5011498;28;20255;-68
2022/01/08 02:56:55;;;;;;;3.43;3.13;;;1.80;99.90;;;;;;5011175;28;20447;-67
2022/01/08 02:59:21;;;;;;;5.57;3.70;;;1.80;99.90;;;;;;5011480;28;20282;-69
2022/01/08 03:01:47;;;;;;;6.83;3.97;;;1.80;99.90;;;;;;5011072;28;20196;-68
2022/01/08 03:04:13;;;;;;;3.97;3.23;;;1.80;99.90;;;;;;5011631;28;20164;-69
2022/01/08 03:06:38;;;;;;;3.03;2.83;;;1.80;99.90;;;;;;5011172;28;20208;-69
2022/01/08 03:09:04;;;;;;;4.23;3.40;;;1.90;99.90;;;;;;5011383;28;20494;-69
2022/01/08 03:11:30;;;;;;;3.23;2.40;;;1.80;99.90;;;;;;5012122;28;20215;-69
2022/01/08 03:13:56;;;;;;;4.37;3.97;;;1.90;99.90;;;;;;4994379;28;20924;-70
2022/01/08 03:16:22;;;;;;;7.23;4.20;;;1.90;99.90;;;;;;5011820;28;20188;-69
2022/01/08 03:18:48;;;;;;;5.27;3.47;;;1.90;99.90;;;;;;5011308;28;20407;-68
2022/01/08 03:21:17;;;;;;;6.97;4.40;;;1.90;99.90;;;;;;5011223;28;20209;-68
2022/01/08 03:23:51;;;;;;;3.23;2.93;;;1.90;99.90;;;;;;5011477;28;20967;-68
2022/01/08 03:26:18;;;;;;;2.83;2.60;;;1.90;99.90;;;;;;5011272;28;20835;-68
2022/01/08 03:28:44;;;;;;;3.20;2.90;;;1.90;99.90;;;;;;5011415;28;20419;-67
2022/01/08 03:31:11;;;;;;;2.90;2.70;;;1.90;99.90;;;;;;5011208;28;20434;-69
2022/01/08 03:33:37;;;;;;;4.10;3.70;;;1.90;99.90;;;;;;5010892;28;20412;-68
2022/01/08 03:36:03;;;;;;;2.97;2.70;;;1.90;99.90;;;;;;5011181;28;20536;-68
2022/01/08 03:38:29;;;;;;;5.60;3.80;;;1.90;99.90;;;;;;5010920;28;20231;-70
2022/01/08 03:40:55;;;;;;;5.80;3.93;;;1.80;99.90;;;;;;5011162;28;20429;-69
2022/01/08 03:43:21;;;;;;;6.50;3.50;;;1.80;99.90;;;;;;5011305;28;20741;-68
2022/01/08 03:45:46;;;;;;;4.73;3.67;;;1.80;99.90;;;;;;5012888;28;20183;-68
2022/01/08 03:48:30;;;;;;;3.20;2.83;;;1.80;99.90;;;;;;5014720;28;20630;-68
2022/01/08 03:50:56;;;;;;;6.80;3.13;;;1.80;99.90;;;;;;5014875;28;20184;-69
2022/01/08 03:53:23;;;;;;;4.30;3.07;;;1.80;99.90;;;;;;5014874;28;20411;-69
2022/01/08 03:55:48;;;;;;;7.93;3.00;;;1.90;99.90;;;;;;5014884;28;20892;-70
2022/01/08 03:58:14;;;;;;;5.20;4.30;;;1.90;99.90;;;;;;5015422;28;20451;-69
2022/01/08 04:00:40;;;;;;;4.67;3.80;;;1.80;99.90;;;;;;5015040;28;20173;-69
2022/01/08 04:03:05;;;;;;;10.70;5.53;;;1.80;99.90;;;;;;5015372;28;20169;-68
2022/01/08 04:05:31;;;;;;;4.53;2.70;;;1.80;99.90;;;;;;5015080;28;20184;-68
2022/01/08 04:07:56;;;;;;;4.10;3.70;;;1.80;99.90;;;;;;5014622;28;20267;-68
2022/01/08 04:10:22;;;;;;;8.00;5.17;;;1.80;99.90;;;;;;5014208;28;20204;-69
2022/01/08 04:12:55;;;;;;;7.50;5.03;;;1.80;99.90;;;;;;5014247;28;20892;-68
2022/01/08 04:17:47;;;;;;;3.50;3.20;;;1.80;99.90;;;;;;5014250;28;20508;-68
2022/01/08 04:20:13;;;;;;;4.00;3.70;;;1.80;99.90;;;;;;5013758;28;20303;-68
2022/01/08 04:22:38;;;;;;;4.17;2.90;;;1.80;99.90;;;;;;5013818;28;20447;-68
2022/01/08 04:25:04;;;;;;;4.40;3.30;;;1.90;99.90;;;;;;5013797;28;20200;-68
2022/01/08 04:27:29;;;;;;;3.00;2.83;;;1.90;99.90;;;;;;5005046;28;20212;-69
2022/01/08 04:29:55;;;;;;;4.70;3.70;;;1.90;99.90;;;;;;4993879;28;20211;-69
2022/01/08 04:32:20;;;;;;;4.60;3.83;;;1.90;99.90;;;;;;4994147;28;20189;-69
2022/01/08 04:34:46;;;;;;;3.90;3.00;;;1.90;99.90;;;;;;4993974;28;20300;-69
2022/01/08 04:37:11;;;;;;;3.33;3.10;;;1.90;99.90;;;;;;4994097;28;20177;-69
2022/01/08 04:39:37;;;;;;;3.70;2.87;;;1.90;99.90;;;;;;4994187;28;20544;-69
2022/01/08 04:42:03;;;;;;;3.27;2.97;;;1.90;99.90;;;;;;4993981;28;20292;-69
2022/01/08 04:44:28;;;;;;;3.50;2.93;;;1.90;99.90;;;;;;4994073;28;20176;-69
2022/01/08 04:46:54;;;;;;;5.97;3.50;;;1.90;99.90;;;;;;4994311;28;20184;-69
2022/01/08 04:49:19;;;;;;;5.83;4.60;;;1.90;99.90;;;;;;4993982;28;20636;-68
2022/01/08 04:51:45;;;;;;;3.40;3.10;;;1.90;99.90;;;;;;4993905;28;20293;-69
2022/01/08 04:54:10;;;;;;;11.23;3.67;;;2.00;99.90;;;;;;4993931;28;20173;-69
2022/01/08 04:56:36;;;;;;;3.30;3.00;;;1.90;99.90;;;;;;4993383;28;20540;-69
2022/01/08 04:59:01;;;;;;;7.37;3.80;;;1.90;99.90;;;;;;4993811;28;20198;-69
2022/01/08 05:01:27;;;;;;;5.10;3.90;;;1.90;99.90;;;;;;4993870;28;20197;-69
2022/01/08 05:03:52;;;;;;;5.73;3.03;;;2.00;99.90;;;;;;4993676;28;20707;-69
2022/01/08 05:06:18;;;;;;;11.00;4.23;;;2.00;99.90;;;;;;4993593;28;20206;-69
2022/01/08 05:08:43;;;;;;;3.67;3.17;;;2.00;99.90;;;;;;4993566;28;20173;-69
2022/01/08 05:11:09;;;;;;;5.67;4.80;;;2.00;99.90;;;;;;4992126;28;20214;-70
2022/01/08 05:13:34;;;;;;;6.30;4.40;;;2.00;99.90;;;;;;4993424;28;20168;-69
2022/01/08 05:16:00;;;;;;;3.70;3.40;;;1.90;99.90;;;;;;4993353;28;20323;-69
2022/01/08 05:18:28;;;;;;;4.27;3.87;;;1.90;99.90;;;;;;4993625;28;20171;-69
2022/01/08 05:21:07;;;;;;;9.83;3.43;;;1.90;99.90;;;;;;4993125;28;20200;-69
2022/01/08 05:23:32;;;;;;;5.73;4.03;;;1.90;99.90;;;;;;5040734;23;20488;-69
2022/01/08 05:25:58;;;;;;;6.07;3.90;;;1.90;99.90;;;;;;5032926;28;20411;-70
2022/01/08 05:28:23;;;;;;;9.23;4.37;;;1.90;99.90;;;;;;5032972;28;20229;-70
2022/01/08 05:30:49;;;;;;;5.73;3.80;;;1.90;99.90;;;;;;5032764;28;20237;-71
2022/01/08 05:33:14;;;;;;;4.40;3.80;;;1.90;99.90;;;;;;5032703;28;20191;-71
2022/01/08 05:35:40;;;;;;;9.83;3.93;;;1.90;99.90;;;;;;5032650;28;20670;-71
2022/01/08 05:38:05;;;;;;;4.70;3.90;;;1.90;99.90;;;;;;5032839;28;20174;-70
2022/01/08 05:40:31;;;;;;;3.60;2.83;;;1.80;99.90;;;;;;5032873;28;20700;-72
2022/01/08 05:42:56;;;;;;;4.17;3.87;;;1.80;99.90;;;;;;5032424;28;20222;-71
2022/01/08 05:45:21;;;;;;;7.90;3.00;;;1.80;99.90;;;;;;5032610;28;20175;-71
2022/01/08 05:47:47;;;;;;;4.20;3.80;;;1.70;99.90;;;;;;5032617;28;20187;-71
2022/01/08 05:50:13;;;;;;;3.13;2.53;;;1.70;99.90;;;;;;5032636;28;20183;-71
2022/01/08 05:52:38;;;;;;;4.60;3.77;;;1.80;99.90;;;;;;5032298;28;20196;-71
2022/01/08 05:55:04;;;;;;;5.67;4.60;;;1.80;99.90;;;;;;5032391;28;20285;-70
2022/01/08 05:57:30;;;;;;;3.03;2.73;;;1.80;99.90;;;;;;5032502;28;20164;-70
2022/01/08 05:59:55;;;;;;;3.90;2.30;;;1.80;99.90;;;;;;5032484;28;20848;-72
2022/01/08 06:02:21;;;;;;;5.50;3.20;;;1.80;99.90;;;;;;5032339;28;20665;-71
2022/01/08 06:04:46;;;;;;;3.30;2.43;;;1.80;99.90;;;;;;5032409;28;20243;-70
2022/01/08 06:07:12;;;;;;;4.13;3.00;;;1.90;99.90;;;;;;5032263;28;20222;-70
2022/01/08 06:09:37;;;;;;;4.40;3.30;;;1.90;99.90;;;;;;5031565;28;20172;-72
2022/01/08 06:12:03;;;;;;;4.10;3.47;;;1.90;99.90;;;;;;5031928;28;20192;-70
2022/01/08 06:14:29;;;;;;;5.50;3.53;;;1.90;99.90;;;;;;5032326;28;20195;-70
2022/01/08 06:16:54;;;;;;;3.90;3.60;;;1.90;99.90;;;;;;5032402;28;20168;-73
2022/01/08 06:19:19;;;;;;;5.43;4.93;;;1.90;99.90;;;;;;5032186;28;20283;-70
2022/01/08 06:21:45;;;;;;;6.40;4.67;;;1.90;99.90;;;;;;5031926;28;20191;-72
2022/01/08 06:24:10;;;;;;;5.30;3.90;;;1.90;99.90;;;;;;5032064;28;20170;-70
2022/01/08 06:26:36;;;;;;;9.03;4.83;;;1.90;99.90;;;;;;5031981;28;20164;-73
2022/01/08 06:29:02;;;;;;;3.30;2.70;;;2.00;99.90;;;;;;5031935;28;20186;-70
2022/01/08 06:31:28;;;;;;;5.70;4.13;;;2.00;99.90;;;;;;5027029;28;20828;-71
2022/01/08 06:33:54;;;;;;;5.50;2.80;;;2.00;99.90;;;;;;5021250;28;20448;-71
2022/01/08 06:36:19;;;;;;;4.93;4.00;;;2.00;99.90;;;;;;5027512;28;20196;-72
2022/01/08 06:38:46;;;;;;;4.97;3.80;;;2.00;99.90;;;;;;5031404;28;20176;-70
2022/01/08 06:41:12;;;;;;;3.47;2.00;;;2.00;99.90;;;;;;5031734;28;20190;-70
2022/01/08 06:43:37;;;;;;;5.23;3.77;;;2.10;99.90;;;;;;5031509;28;20426;-71
2022/01/08 06:46:03;;;;;;;3.13;2.83;;;2.10;99.90;;;;;;5031638;28;20649;-73
2022/01/08 06:48:28;;;;;;;5.87;5.17;;;2.10;99.90;;;;;;5027706;28;20183;-69
2022/01/08 06:50:54;;;;;;;3.70;3.30;;;2.20;99.90;;;;;;5028556;28;20183;-71
2022/01/08 06:53:19;;;;;;;5.57;4.13;;;2.10;99.90;;;;;;5031481;28;20199;-71
2022/01/08 06:55:45;;;;;;;5.00;4.40;;;2.20;99.90;;;;;;5031586;28;20192;-72
2022/01/08 06:58:10;;;;;;;4.03;3.37;;;2.20;99.90;;;;;;5031658;28;20540;-71
2022/01/08 07:00:36;;;;;;;5.87;3.40;;;2.20;99.90;;;;;;5031747;28;20168;-71
2022/01/08 07:03:02;;;;;;;6.83;6.20;;;2.20;99.90;;;;;;5031666;28;20194;-71
2022/01/08 07:05:29;;;;;;;2.97;2.60;;;2.20;99.90;;;;;;5031556;28;20522;-71
2022/01/08 07:07:54;;;;;;;7.07;5.13;;;2.30;99.90;;;;;;5031563;28;20446;-71
2022/01/08 07:10:20;;;;;;;6.17;4.07;;;2.30;99.90;;;;;;5031415;28;20453;-72
2022/01/08 07:12:45;;;;;;;5.63;4.20;;;2.20;99.90;;;;;;5031579;28;20192;-70
2022/01/08 07:15:12;;;;;;;3.70;3.30;;;2.20;99.90;;;;;;5031379;28;20873;-71
2022/01/08 07:17:38;;;;;;;6.33;2.93;;;2.20;99.90;;;;;;5031857;28;20582;-72
2022/01/08 07:20:04;;;;;;;7.23;4.53;;;2.20;99.90;;;;;;5032882;28;20754;-72
2022/01/08 07:22:30;;;;;;;5.37;4.87;;;2.20;99.90;;;;;;5035368;28;20442;-72
2022/01/08 07:24:55;;;;;;;4.90;4.00;;;2.30;99.90;;;;;;5035121;28;20425;-72
2022/01/08 07:27:21;;;;;;;5.53;3.87;;;2.30;99.90;;;;;;5035425;28;20175;-69
2022/01/08 07:29:46;;;;;;;5.93;4.57;;;2.30;99.90;;;;;;5035544;28;20172;-71
2022/01/08 07:32:12;;;;;;;5.03;3.00;;;2.30;99.90;;;;;;5035233;28;20250;-72
2022/01/08 07:34:37;;;;;;;6.30;3.90;;;2.20;99.90;;;;;;5033810;28;20196;-71
2022/01/08 07:37:03;;;;;;;4.23;3.87;;;2.30;99.90;;;;;;5035343;28;20673;-71
2022/01/08 07:39:28;;;;;;;18.83;3.13;;;2.30;99.90;;;;;;5035166;28;20176;-71
2022/01/08 07:41:54;;;;;;;5.10;4.10;;;2.30;99.90;;;;;;5035136;28;20194;-72
2022/01/08 07:44:19;;;;;;;5.97;4.40;;;2.30;99.90;;;;;;5035103;28;20164;-71
2022/01/08 07:46:45;;;;;;;7.47;5.03;;;2.20;99.90;;;;;;5034808;28;20607;-71
2022/01/08 07:49:10;;;;;;;4.60;2.83;;;2.20;99.90;;;;;;5034928;28;20168;-71
2022/01/08 07:51:35;;;;;;;7.17;4.37;;;2.20;99.90;;;;;;5034815;28;20171;-69
2022/01/08 07:54:01;;;;;;;5.90;4.93;;;2.30;99.90;;;;;;5034611;28;20192;-70
2022/01/08 07:56:26;;;;;;;7.00;4.87;;;2.30;99.90;;;;;;5034529;28;20199;-70
2022/01/08 07:58:52;;;;;;;5.63;4.67;;;2.30;99.90;;;;;;5034714;28;20175;-72
2022/01/08 08:01:17;;;;;;;3.50;3.00;;;2.30;99.90;;;;;;5034682;28;20175;-69
2022/01/08 08:03:43;;;;;;;3.77;3.27;;;2.20;99.90;;;;;;5034220;28;20215;-72
2022/01/08 08:06:11;;;;;;;6.50;5.23;;;2.20;99.90;;;;;;5034545;28;20532;-74
2022/01/08 08:08:37;;;;;;;4.13;3.80;;;2.20;99.90;;;;;;5034568;28;20634;-69
2022/01/08 08:11:02;;;;;;;3.67;2.57;;;2.20;99.90;;;;;;5034517;28;20403;-69
2022/01/08 08:13:28;;;;;;;4.40;3.33;;;2.20;99.90;;;;;;5034220;28;20191;-70
2022/01/08 08:15:54;;;;;;;6.07;4.27;;;2.20;99.90;;;;;;5034121;28;20203;-70
2022/01/08 08:18:19;;;;;;;5.97;4.97;;;2.40;99.90;;;;;;5034232;28;20509;-71
2022/01/08 08:20:45;;;;;;;7.80;4.50;;;2.40;99.90;;;;;;5034346;28;20178;-69
2022/01/08 08:23:10;;;;;;;3.63;2.97;;;2.40;99.90;;;;;;5031209;28;20611;-70
2022/01/08 08:25:36;;;;;;;12.93;3.80;;;2.50;99.90;;;;;;5033765;28;20171;-70
2022/01/08 08:28:04;;;;;;;9.90;4.27;;;2.40;99.90;;;;;;5034139;28;20175;-71
2022/01/08 08:30:30;;;;;;;6.83;6.17;;;2.50;99.90;;;;;;5033834;28;20172;-71
2022/01/08 08:32:55;;;;;;;4.60;4.20;;;2.50;99.90;;;;;;5032867;28;20964;-70
2022/01/08 08:35:21;;;;;;;4.90;3.93;;;2.60;99.90;;;;;;5033664;28;20254;-69
2022/01/08 08:37:47;;;;;;;4.40;4.00;;;2.60;99.90;;;;;;5033923;28;20167;-69
2022/01/08 08:40:13;;;;;;;6.03;5.17;;;2.60;99.90;;;;;;5033795;28;20259;-71
2022/01/08 08:42:40;;;;;;;4.40;4.03;;;2.60;99.90;;;;;;5033733;28;20426;-70
2022/01/08 08:45:07;;;;;;;5.10;3.50;;;2.50;99.90;;;;;;5033761;28;20410;-71
2022/01/08 08:47:32;;;;;;;4.17;3.20;;;2.50;99.90;;;;;;5034323;28;20437;-71
2022/01/08 08:50:02;;;;;;;6.40;4.80;;;2.60;99.90;;;;;;5033578;28;20410;-70
2022/01/08 08:52:28;;;;;;;12.97;5.23;;;2.60;99.90;;;;;;5033525;28;20223;-70
2022/01/08 08:54:54;;;;;;;5.70;3.00;;;2.60;99.90;;;;;;5033451;28;20446;-70
2022/01/08 08:57:19;;;;;;;4.07;3.77;;;2.50;99.90;;;;;;5032331;28;20426;-70
2022/01/08 08:59:45;;;;;;;4.23;3.83;;;2.50;99.90;;;;;;5033724;28;20249;-70
2022/01/08 09:02:11;;;;;;;6.87;4.60;;;2.50;99.90;;;;;;5031948;28;20215;-72
2022/01/08 09:04:37;;;;;;;7.67;4.50;;;2.50;99.90;;;;;;5033205;28;20198;-74
2022/01/08 09:07:04;;;;;;;7.20;3.63;;;2.50;99.90;;;;;;5027376;28;20414;-72
2022/01/08 09:09:29;;;;;;;4.67;4.27;;;2.50;99.90;;;;;;5019124;28;20428;-70
2022/01/08 09:11:55;;;;;;;3.90;2.97;;;2.50;99.90;;;;;;5033280;28;20508;-71
2022/01/08 09:14:21;;;;;;;6.60;4.17;;;2.50;99.90;;;;;;5033231;28;20232;-70
2022/01/08 09:16:49;;;;;;;6.03;4.30;;;2.60;99.90;;;;;;5033058;28;20834;-70
2022/01/08 09:19:16;;;;;;;7.03;6.30;;;2.40;99.90;;;;;;5030365;28;20506;-70
2022/01/08 09:21:41;;;;;;;7.07;4.53;;;2.30;99.90;;;;;;5032400;28;20425;-72
2022/01/08 09:24:07;;;;;;;5.27;4.27;;;2.40;99.90;;;;;;5033272;28;20415;-70
2022/01/08 09:26:33;;;;;;;7.93;3.80;;;2.40;99.90;;;;;;5032729;28;20777;-70
2022/01/08 09:28:58;;;;;;;5.40;3.37;;;2.50;99.90;;;;;;5032958;28;20467;-70
2022/01/08 09:31:23;;;;;;;5.60;4.40;;;2.40;99.90;;;;;;5032829;28;20653;-71
2022/01/08 09:33:49;;;;;;;8.03;6.70;;;2.50;99.90;;;;;;5033019;28;20180;-70
2022/01/08 09:36:15;;;;;;;5.80;4.77;;;2.60;99.90;;;;;;5032662;28;20195;-70
2022/01/08 09:38:40;;;;;;;6.33;5.50;;;2.50;99.90;;;;;;5033190;28;20180;-70
2022/01/08 09:41:06;;;;;;;7.53;4.97;;;2.50;99.90;;;;;;5032848;28;20591;-71
2022/01/08 09:43:32;;;;;;;5.47;3.73;;;2.70;99.90;;;;;;5032434;28;20219;-69
2022/01/08 09:45:57;;;;;;;7.53;4.73;;;2.70;99.90;;;;;;5032787;28;20190;-69
2022/01/08 09:48:23;;;;;;;3.23;2.77;;;2.80;99.90;;;;;;5032662;28;20470;-70
2022/01/08 09:50:48;;;;;;;5.40;4.37;;;2.90;99.90;;;;;;5032606;28;20176;-70
2022/01/08 09:53:14;;;;;;;3.93;3.53;;;2.80;99.90;;;;;;5032336;28;20188;-70
2022/01/08 09:55:39;;;;;;;6.37;4.03;;;2.70;99.90;;;;;;5032242;28;20257;-70
2022/01/08 09:58:05;;;;;;;7.27;4.27;;;2.80;99.90;;;;;;5032274;28;20172;-70
2022/01/08 10:00:34;;;;;;;7.20;3.50;;;2.80;99.90;;;;;;5030869;28;20171;-68
2022/01/08 10:03:23;;;;;;;4.53;4.03;;;2.90;99.90;;;;;;5031807;28;20458;-69
2022/01/08 10:05:54;;;;;;;8.50;5.93;;;2.90;99.90;;;;;;5031785;28;20410;-70
2022/01/08 10:08:27;;;;;;;3.20;2.90;;;2.70;99.90;;;;;;5020212;28;20414;-69
2022/01/08 10:10:55;;;;;;;5.40;4.60;;;2.70;99.90;;;;;;5032323;28;20409;-70
2022/01/08 10:13:35;;;;;;;4.33;3.93;;;2.60;99.90;;;;;;5031824;28;20474;-70
2022/01/08 10:18:47;;;;;;;5.30;4.87;;;2.60;99.90;;;;;;5028014;28;20506;-69
2022/01/08 10:21:21;;;;;;;4.03;3.73;;;2.60;99.90;;;;;;5031212;28;20402;-70
2022/01/08 10:23:55;;;;;;;6.47;4.10;;;2.60;99.90;;;;;;5042734;28;20514;-70
2022/01/08 10:26:22;;;;;;;3.43;2.90;;;2.60;99.90;;;;;;5033560;28;20505;-70
2022/01/08 10:28:51;;;;;;;6.93;4.37;;;2.60;99.90;;;;;;5031620;28;20418;-69
2022/01/08 10:31:16;;;;;;;3.47;3.10;;;2.50;99.90;;;;;;5031544;28;20445;-71
2022/01/08 10:33:48;;;;;;;6.47;4.30;;;2.50;99.90;;;;;;5031362;28;20525;-70
2022/01/08 10:36:14;;;;;;;5.10;4.60;;;2.60;99.90;;;;;;5031419;28;20208;-70
2022/01/08 10:38:40;;;;;;;4.63;3.20;;;2.60;99.90;;;;;;5031494;28;20841;-71
2022/01/08 10:41:13;;;;;;;5.90;4.43;;;2.60;99.90;;;;;;5031849;28;20505;-70
2022/01/08 10:43:39;;;;;;;4.73;4.23;;;2.70;99.90;;;;;;5031384;28;20227;-69
2022/01/08 10:46:09;;;;;;;4.87;3.80;;;2.70;99.90;;;;;;5031488;28;20446;-71
2022/01/08 10:48:35;;;;;;;4.63;3.87;;;2.80;99.90;;;;;;5031559;28;20179;-70
2022/01/08 10:51:09;;;;;;;5.50;4.07;;;2.80;99.90;;;;;;5031602;28;20959;-70
2022/01/08 10:53:55;;;;;;;7.33;4.63;;;2.80;99.90;;;;;;5032537;28;20421;-72
2022/01/08 10:56:30;;;;;;;6.13;5.53;;;2.90;99.90;;;;;;5035817;28;20519;-74
2022/01/08 10:59:04;;;;;;;8.60;7.53;;;2.90;99.90;;;;;;5036749;28;20479;-74
2022/01/08 11:01:44;;;;;;;7.03;4.47;;;2.90;99.90;;;;;;5036028;28;20394;-72
2022/01/08 11:04:13;;;;;;;9.07;6.10;;;2.90;99.90;;;;;;5035462;28;20424;-74
2022/01/08 11:06:52;;;;;;;5.27;4.47;;;2.90;99.90;;;;;;5035457;28;20414;-72
2022/01/08 11:09:18;;;;;;;7.00;6.30;;;2.90;99.90;;;;;;5035359;28;20924;-72
2022/01/08 11:11:44;;;;;;;6.30;3.40;;;3.00;99.90;;;;;;5035216;28;20533;-71
2022/01/08 11:14:24;;;;;;;6.43;5.40;;;3.00;99.90;;;;;;5035438;28;20406;-71
2022/01/08 11:16:51;;;;;;;3.63;3.30;;;3.10;99.90;;;;;;5035457;28;20187;-75
2022/01/08 11:19:17;;;;;;;3.43;3.07;;;3.10;99.90;;;;;;5034961;28;20406;-70
2022/01/08 11:21:43;;;;;;;7.43;4.40;;;3.30;99.90;;;;;;5034882;28;20437;-70
2022/01/08 11:24:09;;;;;;;4.67;3.93;;;3.20;99.90;;;;;;5031862;28;20548;-70
2022/01/08 11:26:38;;;;;;;3.87;3.50;;;3.20;99.90;;;;;;5023675;28;20187;-72
2022/01/08 11:29:04;;;;;;;5.30;3.67;;;3.20;99.90;;;;;;5021667;28;20430;-71
2022/01/08 11:31:33;;;;;;;6.17;4.17;;;3.10;99.90;;;;;;5034798;28;20912;-71
2022/01/08 11:34:06;;;;;;;7.70;4.83;;;3.20;99.90;;;;;;5020700;28;20415;-69
2022/01/08 11:36:33;;;;;;;5.20;2.57;;;3.10;99.90;;;;;;5020970;28;20458;-71
2022/01/08 11:38:59;;;;;;;4.00;3.63;;;3.00;99.90;;;;;;5024962;28;20487;-71
2022/01/08 11:41:25;;;;;;;5.33;3.70;;;3.00;99.90;;;;;;5032827;28;20521;-70
2022/01/08 11:43:53;;;;;;;3.50;3.13;;;3.10;99.90;;;;;;5034285;28;20172;-70
2022/01/08 11:46:19;;;;;;;7.93;3.40;;;3.00;99.90;;;;;;5034723;28;20410;-70
2022/01/08 11:48:48;;;;;;;4.27;3.87;;;3.10;99.90;;;;;;5033402;28;20452;-71
2022/01/08 11:51:16;;;;;;;4.00;2.77;;;3.10;99.90;;;;;;5014728;28;20451;-72
2022/01/08 11:53:50;;;;;;;6.10;3.57;;;3.10;99.90;;;;;;5024438;28;20446;-69
2022/01/08 11:56:37;;;;;;;5.07;4.57;;;3.10;99.90;;;;;;5021470;28;20492;-71
2022/01/08 11:59:11;;;;;;;5.77;3.57;;;3.00;99.90;;;;;;5029298;28;20512;-69
2022/01/08 12:01:40;;;;;;;3.70;3.20;;;3.20;99.90;;;;;;5034609;28;20922;-71
2022/01/08 12:04:06;;;;;;;3.80;3.50;;;3.20;99.90;;;;;;5035497;28;20785;-70
2022/01/08 12:06:36;;;;;;;3.73;2.83;;;3.10;99.90;;;;;;5030957;28;20439;-70
2022/01/08 12:09:10;;;;;;;4.40;2.47;;;3.00;99.90;;;;;;5034569;28;20980;-71
2022/01/08 12:11:35;;;;;;;4.70;4.33;;;3.10;99.90;;;;;;5015749;28;20421;-71
2022/01/08 12:14:08;;;;;;;4.50;4.10;;;3.00;99.90;;;;;;5031594;28;20968;-70
2022/01/08 12:16:36;;;;;;;3.57;3.30;;;3.20;99.90;;;;;;5034037;28;20529;-70
2022/01/08 12:19:07;;;;;;;5.10;3.50;;;3.30;99.90;;;;;;5016864;28;20442;-70
2022/01/08 12:21:41;;;;;;;3.80;2.37;;;3.10;99.90;;;;;;5025418;28;20406;-71
2022/01/08 12:24:25;;;;;;;10.90;3.20;;;3.00;99.90;;;;;;5033987;28;20409;-70
2022/01/08 12:26:51;;;;;;;3.93;2.77;;;2.90;99.90;;;;;;5034040;28;20401;-72
2022/01/08 12:29:32;;;;;;;2.40;2.07;;;3.00;99.90;;;;;;5014657;28;20430;-71
2022/01/08 12:32:37;;;;;;;2.57;2.37;;;2.90;99.90;;;;;;5033577;28;20961;-70
2022/01/08 12:35:15;;;;;;;6.30;3.00;;;3.10;99.90;;;;;;5032309;28;20468;-70
2022/01/08 12:37:44;;;;;;;4.80;3.20;;;3.30;99.90;;;;;;5033859;28;20428;-69
2022/01/08 12:40:12;;;;;;;3.30;2.50;;;3.30;99.90;;;;;;5033559;28;20413;-69
2022/01/08 12:42:44;;;;;;;3.30;2.30;;;3.40;99.90;;;;;;5033518;28;20945;-69
2022/01/08 12:45:38;;;;;;;2.70;1.90;;;3.30;99.90;;;;;;5033514;28;20445;-69
2022/01/08 12:48:04;;;;;;;3.97;3.57;;;3.40;99.90;;;;;;5029032;28;20568;-70
2022/01/08 12:50:43;;;;;;;3.50;2.93;;;3.30;99.90;;;;;;5033642;28;20505;-70
2022/01/08 12:53:22;;;;;;;4.67;4.03;;;3.30;99.90;;;;;;5013871;28;20690;-69
2022/01/08 12:55:54;;;;;;;3.77;3.37;;;3.40;99.90;;;;;;5032349;28;20465;-69
2022/01/08 12:58:26;;;;;;;3.67;2.87;;;3.30;99.90;;;;;;5033255;28;20413;-69
2022/01/08 13:01:01;;;;;;;6.10;3.20;;;3.30;99.90;;;;;;5033240;28;21003;-70
2022/01/08 13:03:30;;;;;;;2.43;2.27;;;3.30;99.90;;;;;;5033194;28;21001;-70
2022/01/08 13:06:14;;;;;;;5.77;3.00;;;3.40;99.90;;;;;;5030978;28;20414;-70
2022/01/08 13:08:44;;;;;;;4.10;2.60;;;3.30;99.90;;;;;;5038488;28;20774;-70
2022/01/08 13:11:13;;;;;;;4.43;3.40;;;3.40;99.90;;;;;;5044767;28;20433;-69
2022/01/08 13:14:00;;;;;;;4.60;3.20;;;3.50;99.90;;;;;;5032897;28;20446;-69
2022/01/08 13:16:38;;;;;;;3.63;2.57;;;3.50;99.90;;;;;;5032734;28;20454;-70
2022/01/08 13:19:07;;;;;;;3.43;2.57;;;3.60;99.90;;;;;;5032450;28;20450;-69